Time;durP1;ratioP1;P1;durP2;ratioP2;P2;SDS_P1;SDS_P2;PMS_P1;PMS_P2;Temp;Humidity;BMP_temperature;BMP_pressure;BME280_temperature;BME280_humidity;BME280_pressure;Samples;Min_cycle;Max_cycle;Signal;HPM_P1;HPM_P2
2023/06/13 00:00:15;;;;;;;2.42;1.52;;;;;;;13.15;81.69;98548.22;4469550;32;20131;-65
2023/06/13 00:02:44;;;;;;;2.28;1.42;;;;;;;13.16;81.65;98544.63;4469882;32;20104;-65
2023/06/13 00:05:17;;;;;;;4.30;1.60;;;;;;;13.13;81.32;98543.13;4469269;32;20167;-65
2023/06/13 00:07:45;;;;;;;1.98;1.58;;;;;;;13.10;81.44;98546.06;4469614;32;20155;-65
2023/06/13 00:10:13;;;;;;;7.80;2.10;;;;;;;13.06;82.67;98544.72;4469613;32;20093;-65
2023/06/13 00:12:44;;;;;;;2.85;1.45;;;;;;;13.10;80.36;98542.63;4469364;32;20537;-65
2023/06/13 00:15:11;;;;;;;2.45;1.45;;;;;;;13.13;80.36;98545.75;4469399;32;20147;-65
2023/06/13 00:17:40;;;;;;;3.47;1.70;;;;;;;13.18;79.93;98537.37;4469597;32;20092;-65
2023/06/13 00:20:11;;;;;;;3.08;1.52;;;;;;;13.16;80.13;98531.47;4469476;32;20097;-64
2023/06/13 00:22:39;;;;;;;3.08;1.25;;;;;;;13.08;82.64;98534.06;4469820;32;20450;-65
2023/06/13 00:25:07;;;;;;;2.15;1.35;;;;;;;13.06;80.37;98530.78;4469565;32;20151;-65
2023/06/13 00:27:34;;;;;;;4.53;1.60;;;;;;;13.05;80.31;98534.38;4469407;32;20101;-65
2023/06/13 00:30:04;;;;;;;4.37;2.08;;;;;;;13.00;80.60;98534.84;4469447;32;20162;-65
2023/06/13 00:32:31;;;;;;;2.28;1.60;;;;;;;13.05;80.76;98521.22;4469428;32;20125;-65
2023/06/13 00:34:58;;;;;;;3.70;1.48;;;;;;;12.96;81.16;98528.28;4469325;32;20156;-64
2023/06/13 00:37:29;;;;;;;2.58;1.55;;;;;;;12.95;80.76;98516.91;4469337;32;20100;-65
2023/06/13 00:39:56;;;;;;;2.08;1.20;;;;;;;12.91;80.32;98518.25;4469377;32;20600;-65
2023/06/13 00:42:24;;;;;;;3.22;1.48;;;;;;;12.89;80.10;98520.19;4469276;32;20104;-65
2023/06/13 00:44:51;;;;;;;4.72;2.28;;;;;;;12.89;80.84;98514.13;4469218;32;20101;-65
2023/06/13 00:47:18;;;;;;;3.22;1.52;;;;;;;12.81;80.91;98511.44;4469551;32;20077;-65
2023/06/13 00:49:46;;;;;;;2.40;1.30;;;;;;;12.81;80.72;98512.28;4469302;32;20104;-65
2023/06/13 00:52:14;;;;;;;2.30;1.52;;;;;;;12.78;81.09;98502.91;4455213;32;20206;-65
2023/06/13 00:54:41;;;;;;;2.62;1.23;;;;;;;12.71;81.74;98496.62;4469107;32;20156;-65
2023/06/13 00:57:08;;;;;;;2.47;1.50;;;;;;;12.61;81.40;98501.16;4455110;32;20093;-65
2023/06/13 00:59:35;;;;;;;2.22;1.23;;;;;;;12.59;81.77;98497.88;4455257;32;20104;-65
2023/06/13 01:02:03;;;;;;;3.50;1.48;;;;;;;12.51;82.57;98496.03;4469175;32;20096;-65
2023/06/13 01:04:34;;;;;;;2.97;1.60;;;;;;;12.55;82.28;98500.00;4469146;32;20097;-65
2023/06/13 01:07:05;;;;;;;9.88;1.50;;;;;;;12.49;82.72;98486.66;4468875;32;20181;-65
2023/06/13 01:09:33;;;;;;;3.50;1.45;;;;;;;12.38;82.70;98485.97;4455231;32;20134;-65
2023/06/13 01:12:02;;;;;;;2.33;1.25;;;;;;;12.35;83.02;98499.37;4469369;32;20110;-65
2023/06/13 01:14:41;;;;;;;6.35;1.55;;;;;;;12.28;83.30;98492.28;4454836;32;20123;-65
2023/06/13 01:17:18;;;;;;;1.85;1.27;;;;;;;12.33;82.55;98500.53;4442162;32;20101;-65
2023/06/13 01:19:58;;;;;;;4.47;1.67;;;;;;;12.18;84.20;98501.06;4455163;32;20394;-65
2023/06/13 01:22:38;;;;;;;2.70;1.37;;;;;;;12.06;85.53;98491.81;4454378;32;20458;-65
2023/06/13 01:25:11;;;;;;;2.75;1.20;;;;;;;11.92;87.00;98494.97;4454915;32;20105;-65
2023/06/13 01:27:39;;;;;;;3.15;1.67;;;;;;;11.86;86.57;98486.72;4454826;32;20093;-65
2023/06/13 01:30:07;;;;;;;3.42;1.30;;;;;;;11.82;87.83;98481.91;4468889;32;20184;-65
2023/06/13 01:32:35;;;;;;;3.12;1.40;;;;;;;11.79;87.98;98483.03;4454863;32;20104;-65
2023/06/13 01:35:03;;;;;;;1.83;1.25;;;;;;;11.76;86.65;98472.03;4454554;32;20121;-65
2023/06/13 01:37:31;;;;;;;6.35;1.62;;;;;;;11.78;87.98;98485.81;4468919;32;20093;-65
2023/06/13 01:39:58;;;;;;;2.75;1.50;;;;;;;11.68;89.33;98476.22;4468805;32;20089;-65
2023/06/13 01:42:25;;;;;;;2.17;1.23;;;;;;;11.65;90.17;98473.91;4454326;32;20501;-65
2023/06/13 01:44:53;;;;;;;1.92;1.37;;;;;;;11.61;91.13;98472.59;4468695;32;20161;-65
2023/06/13 01:47:29;;;;;;;2.30;1.40;;;;;;;11.55;90.24;98478.41;4454967;32;20105;-65
2023/06/13 01:50:02;;;;;;;2.55;1.52;;;;;;;11.59;89.97;98473.69;4454871;32;20097;-65
2023/06/13 01:53:25;;;;;;;2.75;1.27;;;;;;;11.63;89.65;98469.81;4468736;32;20108;-65
2023/06/13 01:55:58;;;;;;;2.45;2.00;;;;;;;11.68;89.33;98472.78;4404491;32;20098;-65
2023/06/13 01:59:05;;;;;;;1.42;1.30;;;;;;;11.69;88.95;98466.56;4404484;32;20090;-65
2023/06/13 02:01:34;;;;;;;2.10;1.45;;;;;;;11.62;88.76;98470.78;4399257;32;168108;-65
2023/06/13 02:04:02;;;;;;;1.95;1.35;;;;;;;11.68;88.05;98470.16;4404455;32;20508;-65
2023/06/13 02:06:30;;;;;;;2.95;1.42;;;;;;;11.67;87.92;98468.50;4404233;32;20255;-65
2023/06/13 02:09:01;;;;;;;3.12;1.73;;;;;;;11.59;88.38;98471.88;4404368;32;20078;-65
2023/06/13 02:11:29;;;;;;;4.47;1.37;;;;;;;11.63;88.51;98475.06;4404200;32;20321;-65
2023/06/13 02:13:56;;;;;;;2.97;1.30;;;;;;;11.66;87.83;98477.37;4404172;32;20117;-65
2023/06/13 02:16:29;;;;;;;1.83;1.40;;;;;;;11.64;88.22;98474.06;4404099;32;20122;-65
2023/06/13 02:19:00;;;;;;;2.10;1.15;;;;;;;11.62;88.15;98468.16;4405346;32;20090;-65
2023/06/13 02:21:29;;;;;;;2.92;1.35;;;;;;;11.63;88.24;98473.25;4406114;32;20157;-65
2023/06/13 02:23:58;;;;;;;2.90;1.70;;;;;;;11.57;89.13;98473.00;4406192;32;20241;-65
2023/06/13 02:26:28;;;;;;;3.72;1.40;;;;;;;11.47;90.06;98470.47;4406117;32;20173;-65
2023/06/13 02:29:00;;;;;;;2.62;1.55;;;;;;;11.38;91.52;98464.31;4411400;32;20109;-65
2023/06/13 02:31:28;;;;;;;3.15;1.58;;;;;;;11.30;92.22;98469.50;4470196;32;20123;-65
2023/06/13 02:33:55;;;;;;;2.10;1.40;;;;;;;11.25;92.52;98466.47;4470267;32;20455;-65
2023/06/13 02:36:22;;;;;;;3.78;1.73;;;;;;;11.18;93.88;98466.25;4470499;32;20164;-65
2023/06/13 02:38:49;;;;;;;2.10;1.35;;;;;;;11.12;94.18;98466.88;4470173;32;20092;-65
2023/06/13 02:41:16;;;;;;;2.80;1.40;;;;;;;11.08;94.54;98461.09;4470315;32;20089;-65
2023/06/13 02:43:44;;;;;;;4.35;1.62;;;;;;;11.02;94.84;98459.03;4470315;32;20132;-65
2023/06/13 02:46:11;;;;;;;3.40;1.52;;;;;;;10.97;95.58;98456.88;4470201;32;20084;-65
2023/06/13 02:48:38;;;;;;;2.25;1.30;;;;;;;10.97;95.82;98459.47;4470146;32;20169;-65
2023/06/13 02:51:07;;;;;;;2.90;1.50;;;;;;;10.90;97.13;98457.59;4470611;32;20185;-65
2023/06/13 02:53:34;;;;;;;3.35;1.85;;;;;;;10.88;97.43;98470.03;4470162;32;20089;-65
2023/06/13 02:56:02;;;;;;;7.28;1.60;;;;;;;10.85;98.13;98465.09;4470075;32;20106;-65
2023/06/13 02:58:29;;;;;;;2.33;1.50;;;;;;;10.82;99.20;98461.81;4469971;32;20080;-65
2023/06/13 03:00:56;;;;;;;3.37;1.45;;;;;;;10.73;100.00;98462.66;4470069;32;20100;-65
2023/06/13 03:03:24;;;;;;;2.42;1.37;;;;;;;10.74;100.00;98464.31;4470310;32;20180;-65
2023/06/13 03:05:59;;;;;;;3.30;2.37;;;;;;;10.77;100.00;98464.03;4469801;32;20085;-65
2023/06/13 03:08:26;;;;;;;4.43;1.42;;;;;;;10.75;100.00;98468.59;4470101;32;20080;-65
2023/06/13 03:10:54;;;;;;;2.15;1.40;;;;;;;10.70;100.00;98456.88;4470318;32;20104;-65
2023/06/13 03:13:22;;;;;;;3.17;1.55;;;;;;;10.69;100.00;98470.94;4447758;32;20127;-65
2023/06/13 03:15:51;;;;;;;5.05;1.55;;;;;;;10.73;100.00;98472.31;4454751;32;20517;-65
2023/06/13 03:18:20;;;;;;;3.25;1.33;;;;;;;10.69;100.00;98471.78;4454405;32;20607;-65
2023/06/13 03:20:49;;;;;;;2.35;1.37;;;;;;;10.67;100.00;98458.00;4454634;32;20645;-65
2023/06/13 03:23:17;;;;;;;2.53;1.50;;;;;;;10.67;100.00;98454.56;4454611;32;20089;-65
2023/06/13 03:25:45;;;;;;;5.62;1.85;;;;;;;10.65;100.00;98460.75;4454386;32;20097;-65
2023/06/13 03:28:12;;;;;;;3.33;1.77;;;;;;;10.65;100.00;98454.72;4454162;32;20081;-65
2023/06/13 03:30:40;;;;;;;1.83;1.15;;;;;;;10.66;100.00;98464.22;4453425;32;20184;-65
2023/06/13 03:33:09;;;;;;;3.53;1.50;;;;;;;10.67;100.00;98472.91;4454113;32;20403;-65
2023/06/13 03:35:38;;;;;;;3.78;1.42;;;;;;;10.71;100.00;98472.47;4454170;32;20160;-65
2023/06/13 03:38:06;;;;;;;4.37;1.30;;;;;;;10.77;100.00;98461.41;4454411;32;20143;-65
2023/06/13 03:40:33;;;;;;;4.07;1.70;;;;;;;10.82;100.00;98460.97;4454270;32;20117;-65
2023/06/13 03:43:00;;;;;;;2.62;1.65;;;;;;;10.84;100.00;98464.28;4454036;32;20561;-65
2023/06/13 03:45:27;;;;;;;4.65;1.80;;;;;;;10.90;99.97;98468.09;4454170;32;20076;-65
2023/06/13 03:47:55;;;;;;;2.33;1.50;;;;;;;10.96;100.00;98470.13;4454049;32;20542;-65
2023/06/13 03:50:22;;;;;;;5.90;1.80;;;;;;;11.03;100.00;98473.00;4454026;32;20093;-65
2023/06/13 03:52:50;;;;;;;1.95;1.58;;;;;;;11.06;99.48;98468.28;4440059;32;20169;-65
2023/06/13 03:55:18;;;;;;;3.10;1.60;;;;;;;11.18;98.99;98468.87;4454272;32;20168;-65
2023/06/13 03:57:46;;;;;;;3.85;1.60;;;;;;;11.25;98.92;98469.94;4454058;32;20093;-65
2023/06/13 04:00:14;;;;;;;3.30;1.52;;;;;;;11.39;99.04;98460.72;4454030;32;20102;-65
2023/06/13 04:02:41;;;;;;;2.03;1.42;;;;;;;11.60;97.25;98459.63;4465287;32;20092;-64
2023/06/13 04:05:12;;;;;;;1.85;1.35;;;;;;;11.89;96.54;98462.78;4469164;32;20123;-65
2023/06/13 04:07:40;;;;;;;2.45;2.25;;;;;;;12.22;93.47;98462.22;4468965;32;20149;-64
2023/06/13 04:10:07;;;;;;;2.35;1.20;;;;;;;12.39;92.20;98468.37;4469932;32;20100;-64
2023/06/13 04:12:35;;;;;;;3.28;1.62;;;;;;;12.60;90.45;98471.44;4469589;32;20125;-65
2023/06/13 04:15:04;;;;;;;2.20;1.60;;;;;;;12.84;89.38;98477.78;4469321;32;20114;-65
2023/06/13 04:17:32;;;;;;;3.10;1.12;;;;;;;12.96;88.59;98467.81;4469408;32;20101;-65
2023/06/13 04:20:01;;;;;;;1.87;1.23;;;;;;;12.90;88.83;98474.53;4469309;32;20089;-65
2023/06/13 04:22:28;;;;;;;2.53;1.48;;;;;;;12.73;87.39;98468.37;4468055;32;20512;-65
2023/06/13 04:24:55;;;;;;;4.03;1.42;;;;;;;12.89;85.74;98474.69;4469006;32;20097;-65
2023/06/13 04:27:28;;;;;;;1.98;1.33;;;;;;;13.09;84.92;98470.78;4469199;32;20104;-65
2023/06/13 04:29:56;;;;;;;4.80;1.27;;;;;;;13.18;82.64;98468.19;4467684;32;20367;-65
2023/06/13 04:32:28;;;;;;;4.60;1.50;;;;;;;13.38;82.20;98474.81;4467437;32;20127;-65
2023/06/13 04:34:58;;;;;;;2.08;1.33;;;;;;;13.49;81.99;98476.34;4468567;32;20134;-65
2023/06/13 04:37:25;;;;;;;2.58;1.48;;;;;;;13.52;79.33;98483.06;4468434;32;20458;-65
2023/06/13 04:39:53;;;;;;;3.47;1.42;;;;;;;13.43;79.09;98484.84;4464137;32;20117;-65
2023/06/13 04:42:24;;;;;;;2.72;1.42;;;;;;;13.38;77.98;98477.44;4467392;32;20096;-65
2023/06/13 04:45:01;;;;;;;2.37;1.60;;;;;;;13.28;79.35;98485.47;4463015;32;20165;-65
2023/06/13 04:47:33;;;;;;;2.35;1.30;;;;;;;13.36;79.88;98486.50;4470953;32;20122;-65
2023/06/13 04:50:21;;;;;;;4.18;1.58;;;;;;;13.39;77.97;98487.00;4467158;32;20100;-65
2023/06/13 04:52:53;;;;;;;4.78;1.37;;;;;;;13.55;78.69;98485.34;4467206;32;20157;-65
2023/06/13 04:55:21;;;;;;;2.17;1.37;;;;;;;13.69;75.22;98479.47;4467996;32;20089;-65
2023/06/13 04:57:48;;;;;;;2.95;1.52;;;;;;;13.75;74.06;98478.00;4469784;32;20471;-65
2023/06/13 05:00:16;;;;;;;5.22;2.20;;;;;;;14.17;75.23;98484.84;4467952;32;20489;-63
2023/06/13 05:02:45;;;;;;;3.78;1.95;;;;;;;14.22;71.54;98486.97;4457927;32;20093;-65
2023/06/13 05:05:16;;;;;;;2.10;1.27;;;;;;;14.51;69.65;98486.44;4464626;32;20122;-65
2023/06/13 05:07:47;;;;;;;3.80;1.45;;;;;;;14.84;66.81;98491.63;4463378;32;20100;-65
2023/06/13 05:10:15;;;;;;;3.45;1.45;;;;;;;14.83;69.77;98489.97;4464649;32;20120;-65
2023/06/13 05:12:45;;;;;;;2.62;1.37;;;;;;;14.99;66.06;98491.72;4462510;32;20084;-65
2023/06/13 05:15:13;;;;;;;5.80;1.33;;;;;;;15.20;66.47;98494.59;4463918;32;20167;-65
2023/06/13 05:17:40;;;;;;;6.93;1.55;;;;;;;15.33;64.70;98488.72;4464491;32;20774;-65
2023/06/13 05:20:10;;;;;;;3.15;1.48;;;;;;;15.39;61.18;98488.03;4463234;32;20104;-65
2023/06/13 05:22:41;;;;;;;5.35;1.48;;;;;;;15.15;59.74;98490.81;4465776;32;20100;-65
2023/06/13 05:25:09;;;;;;;1.83;1.10;;;;;;;15.37;63.23;98487.38;4462423;32;20101;-65
2023/06/13 05:27:36;;;;;;;1.85;1.08;;;;;;;15.17;62.02;98488.81;4459746;32;21821;-65
2023/06/13 05:30:10;;;;;;;2.42;1.60;;;;;;;15.18;62.23;98493.09;4460858;32;20089;-65
2023/06/13 05:32:38;;;;;;;2.62;1.70;;;;;;;15.45;60.38;98483.87;4468057;32;20169;-64
2023/06/13 05:35:08;;;;;;;1.52;1.23;;;;;;;15.71;60.06;98482.69;4465819;32;20140;-65
2023/06/13 05:37:38;;;;;;;16.98;1.67;;;;;;;16.06;60.35;98489.19;4467397;32;20100;-65
2023/06/13 05:40:07;;;;;;;6.68;1.48;;;;;;;16.34;55.83;98490.44;4463667;32;20145;-65
2023/06/13 05:42:37;;;;;;;4.70;1.62;;;;;;;16.36;55.17;98493.72;4464484;32;20119;-65
2023/06/13 05:45:06;;;;;;;9.75;1.45;;;;;;;16.61;57.32;98491.63;4465502;32;20084;-65
2023/06/13 05:47:33;;;;;;;24.27;2.60;;;;;;;16.66;57.46;98494.53;4460557;32;20100;-65
2023/06/13 05:50:01;;;;;;;29.25;2.62;;;;;;;16.55;54.45;98497.63;4467661;32;20108;-66
2023/06/13 05:52:28;;;;;;;22.62;2.22;;;;;;;16.60;57.17;98496.06;4463298;32;20096;-65
2023/06/13 05:54:55;;;;;;;12.45;2.62;;;;;;;16.76;56.14;98491.59;4468109;32;20536;-65
2023/06/13 05:57:24;;;;;;;3.12;1.50;;;;;;;16.85;56.29;98487.84;4465848;32;20114;-64
2023/06/13 05:59:51;;;;;;;7.37;1.67;;;;;;;16.82;51.22;98493.50;4465655;32;20168;-65
2023/06/13 06:02:19;;;;;;;4.20;1.40;;;;;;;17.07;55.35;98490.59;4465813;32;20121;-65
2023/06/13 06:04:47;;;;;;;3.92;1.40;;;;;;;17.01;52.52;98492.16;4462267;32;20093;-66
2023/06/13 06:07:14;;;;;;;4.93;1.70;;;;;;;17.26;51.34;98494.47;4462713;32;20101;-65
2023/06/13 06:09:41;;;;;;;8.18;1.62;;;;;;;17.61;53.96;98490.16;4464224;32;20100;-65
2023/06/13 06:12:10;;;;;;;6.28;1.60;;;;;;;17.91;50.99;98493.50;4460422;32;20120;-66
2023/06/13 06:14:38;;;;;;;3.33;1.65;;;;;;;18.04;51.16;98492.78;4463497;32;20164;-65
2023/06/13 06:17:05;;;;;;;3.75;1.80;;;;;;;17.97;48.00;98491.09;4464211;32;20116;-66
2023/06/13 06:19:32;;;;;;;2.00;1.42;;;;;;;18.06;48.70;98498.72;4462028;32;20443;-66
2023/06/13 06:22:02;;;;;;;8.98;1.60;;;;;;;18.34;48.40;98508.50;4463806;32;20100;-65
2023/06/13 06:24:29;;;;;;;29.65;2.80;;;;;;;17.71;49.71;98500.41;4465810;32;20112;-66
2023/06/13 06:26:59;;;;;;;2.22;1.30;;;;;;;17.29;53.19;98494.09;4467530;32;20638;-65
2023/06/13 06:29:26;;;;;;;18.30;1.75;;;;;;;17.51;51.75;98487.81;4461042;32;20101;-67
2023/06/13 06:31:53;;;;;;;27.87;2.53;;;;;;;17.83;54.09;98496.25;4464909;32;20160;-66
2023/06/13 06:34:21;;;;;;;2.70;1.77;;;;;;;17.95;51.80;98483.34;4446144;32;20097;-66
2023/06/13 06:36:48;;;;;;;5.53;1.58;;;;;;;18.21;52.44;98481.91;4464312;32;20097;-66
2023/06/13 06:39:16;;;;;;;2.28;1.48;;;;;;;18.20;50.48;98490.88;4466666;32;20143;-66
2023/06/13 06:41:43;;;;;;;9.60;2.33;;;;;;;18.17;50.98;98481.47;4465941;32;20111;-66
2023/06/13 06:44:11;;;;;;;1.90;1.50;;;;;;;18.17;51.02;98484.13;4464309;32;20180;-67
2023/06/13 06:46:38;;;;;;;6.43;1.50;;;;;;;17.73;49.31;98480.69;4462047;32;20151;-66
2023/06/13 06:49:07;;;;;;;5.53;1.58;;;;;;;17.92;50.37;98478.41;4463944;32;20824;-67
2023/06/13 06:51:35;;;;;;;5.80;1.70;;;;;;;18.04;49.14;98482.19;4465153;32;20093;-67
2023/06/13 06:54:02;;;;;;;5.35;1.60;;;;;;;18.20;49.82;98488.22;4459600;32;20104;-64
2023/06/13 06:56:29;;;;;;;5.03;1.37;;;;;;;18.27;47.71;98481.97;4458659;32;20127;-67
2023/06/13 06:58:57;;;;;;;2.72;1.50;;;;;;;17.64;47.97;98487.13;4463049;32;20136;-67
2023/06/13 07:01:24;;;;;;;1.73;1.20;;;;;;;17.59;48.37;98478.09;4464411;32;20197;-67
2023/06/13 07:03:52;;;;;;;6.87;1.48;;;;;;;17.82;50.92;98478.72;4442671;32;20101;-66
2023/06/13 07:06:19;;;;;;;4.43;1.42;;;;;;;17.89;47.06;98490.22;4462672;32;20105;-66
2023/06/13 07:08:46;;;;;;;8.57;1.90;;;;;;;17.80;47.08;98483.38;4460768;32;20100;-65
2023/06/13 07:11:14;;;;;;;3.75;1.50;;;;;;;17.79;47.49;98492.34;4460171;32;20092;-67
2023/06/13 07:13:41;;;;;;;3.17;1.73;;;;;;;17.69;48.27;98481.25;4463015;32;20131;-66
2023/06/13 07:16:08;;;;;;;4.30;1.40;;;;;;;17.79;46.00;98483.56;4466252;32;20116;-65
2023/06/13 07:18:35;;;;;;;2.10;1.42;;;;;;;17.38;48.06;98474.41;4461743;32;20129;-66
2023/06/13 07:21:02;;;;;;;5.93;1.55;;;;;;;17.44;49.51;98483.44;4460255;32;20148;-69
2023/06/13 07:23:30;;;;;;;4.15;1.50;;;;;;;17.58;47.71;98481.75;4449134;32;20161;-68
2023/06/13 07:25:58;;;;;;;3.15;1.50;;;;;;;17.76;51.54;98481.31;4463065;32;20157;-68
2023/06/13 07:28:25;;;;;;;3.50;1.48;;;;;;;17.77;50.29;98480.31;4462118;32;20139;-66
2023/06/13 07:30:52;;;;;;;9.63;1.70;;;;;;;17.61;51.24;98473.41;4462465;32;20093;-65
2023/06/13 07:33:20;;;;;;;3.37;1.40;;;;;;;17.39;49.72;98470.78;4447558;32;20104;-65
2023/06/13 07:35:47;;;;;;;5.45;1.40;;;;;;;17.59;49.29;98472.81;4466339;32;20104;-65
2023/06/13 07:38:15;;;;;;;7.43;1.52;;;;;;;17.63;49.20;98463.47;4464535;32;20193;-65
2023/06/13 07:40:43;;;;;;;3.22;1.50;;;;;;;17.61;50.35;98466.31;4463318;32;20601;-66
2023/06/13 07:43:10;;;;;;;6.25;1.62;;;;;;;17.49;49.04;98471.28;4460732;32;20130;-67
2023/06/13 07:45:37;;;;;;;2.00;1.15;;;;;;;17.47;50.11;98470.66;4461108;32;20139;-67
2023/06/13 07:48:05;;;;;;;4.62;1.30;;;;;;;17.69;50.82;98475.97;4460080;32;20455;-67
2023/06/13 07:50:34;;;;;;;3.22;1.92;;;;;;;17.72;50.01;98465.78;4463324;32;20096;-67
2023/06/13 07:53:01;;;;;;;6.05;1.83;;;;;;;17.97;52.29;98469.87;4462854;32;20529;-67
2023/06/13 07:55:28;;;;;;;4.37;1.60;;;;;;;17.99;52.45;98465.25;4464532;32;20144;-67
2023/06/13 07:57:55;;;;;;;2.90;1.60;;;;;;;17.95;52.67;98463.97;4464632;32;20130;-66
2023/06/13 08:00:26;;;;;;;3.65;1.70;;;;;;;18.07;54.73;98465.09;4461958;32;20123;-67
2023/06/13 08:02:54;;;;;;;3.28;1.40;;;;;;;17.90;53.38;98460.06;4460117;32;20117;-66
2023/06/13 08:05:21;;;;;;;2.20;1.37;;;;;;;17.87;52.40;98463.06;4455982;32;20154;-67
2023/06/13 08:07:50;;;;;;;2.33;1.60;;;;;;;17.87;52.01;98457.75;4446577;32;20123;-67
2023/06/13 08:10:18;;;;;;;9.95;2.30;;;;;;;18.02;52.74;98457.72;4449059;32;20101;-67
2023/06/13 08:12:45;;;;;;;2.80;1.67;;;;;;;18.31;53.27;98453.22;4447309;32;20085;-67
2023/06/13 08:15:12;;;;;;;8.35;1.65;;;;;;;18.24;50.65;98466.44;4444112;32;20167;-67
2023/06/13 08:17:42;;;;;;;3.30;1.67;;;;;;;18.21;50.91;98463.34;4445484;32;20143;-65
2023/06/13 08:20:10;;;;;;;4.80;1.75;;;;;;;18.13;53.87;98461.66;4444451;32;20080;-66
2023/06/13 08:22:39;;;;;;;2.10;1.45;;;;;;;18.14;54.39;98457.16;4444772;32;20116;-67
2023/06/13 08:25:10;;;;;;;2.55;1.62;;;;;;;18.07;52.46;98460.59;4444327;32;20443;-66
2023/06/13 08:27:38;;;;;;;2.87;1.40;;;;;;;17.96;53.51;98455.03;4446460;32;20184;-67
2023/06/13 08:30:06;;;;;;;2.97;1.40;;;;;;;17.99;52.09;98459.94;4447541;32;20164;-67
2023/06/13 08:32:34;;;;;;;4.35;1.75;;;;;;;18.38;54.09;98462.03;4448304;32;21803;-66
2023/06/13 08:35:02;;;;;;;5.85;1.27;;;;;;;18.32;51.75;98461.97;4450882;32;20127;-67
2023/06/13 08:37:30;;;;;;;2.70;1.52;;;;;;;18.12;50.88;98460.00;4448848;32;20821;-67
2023/06/13 08:39:57;;;;;;;2.95;1.70;;;;;;;18.37;51.90;98462.22;4451033;32;20097;-67
2023/06/13 08:42:25;;;;;;;2.45;1.27;;;;;;;18.50;51.12;98458.81;4449447;32;20101;-66
2023/06/13 08:44:52;;;;;;;3.62;1.48;;;;;;;18.65;51.82;98450.72;4452017;32;20559;-67
2023/06/13 08:47:20;;;;;;;3.35;1.70;;;;;;;18.41;53.78;98455.50;4446268;32;20854;-67
2023/06/13 08:50:07;;;;;;;3.80;1.55;;;;;;;18.70;55.28;98456.25;4450693;32;20122;-67
2023/06/13 08:52:39;;;;;;;4.82;1.48;;;;;;;18.61;52.02;98456.44;4451009;32;20120;-67
2023/06/13 08:55:13;;;;;;;3.60;1.58;;;;;;;18.72;53.79;98457.69;4449194;32;20151;-67
2023/06/13 08:58:03;;;;;;;3.75;1.70;;;;;;;18.70;50.67;98465.06;4452287;32;20098;-68
2023/06/13 09:00:35;;;;;;;4.25;1.48;;;;;;;18.58;53.27;98459.47;4447415;32;20097;-66
2023/06/13 09:03:06;;;;;;;2.40;1.60;;;;;;;18.56;52.51;98464.19;4436645;32;20160;-65
2023/06/13 09:05:34;;;;;;;4.47;1.50;;;;;;;18.61;52.26;98461.75;4433259;32;20144;-65
2023/06/13 09:08:03;;;;;;;4.53;1.50;;;;;;;18.67;51.95;98460.13;4449791;32;20902;-65
2023/06/13 09:10:51;;;;;;;3.17;1.62;;;;;;;18.82;50.18;98467.13;4449497;32;20639;-67
2023/06/13 09:13:20;;;;;;;5.00;1.80;;;;;;;18.96;51.56;98469.66;4449749;32;20148;-67
2023/06/13 09:15:48;;;;;;;2.95;1.65;;;;;;;18.92;50.22;98464.97;4451900;32;20091;-66
2023/06/13 09:18:18;;;;;;;5.62;2.12;;;;;;;18.84;49.93;98454.50;4461454;32;20097;-66
2023/06/13 09:20:45;;;;;;;3.37;1.50;;;;;;;18.98;46.53;98466.81;4450254;32;20128;-65
2023/06/13 09:23:16;;;;;;;2.90;1.60;;;;;;;18.96;46.66;98461.72;4459621;32;20112;-67
2023/06/13 09:25:45;;;;;;;6.20;1.58;;;;;;;18.95;47.90;98456.59;4455997;32;20140;-65
2023/06/13 09:28:39;;;;;;;2.45;1.40;;;;;;;18.84;49.68;98455.31;4458644;32;20097;-66
2023/06/13 09:31:08;;;;;;;4.37;1.60;;;;;;;19.24;49.61;98454.66;4458629;32;20180;-66
2023/06/13 09:33:35;;;;;;;2.28;1.35;;;;;;;19.10;48.11;98453.78;4458603;32;20089;-66
2023/06/13 09:36:04;;;;;;;5.12;1.42;;;;;;;19.07;49.84;98448.88;4460920;32;20089;-67
2023/06/13 09:38:40;;;;;;;2.10;1.45;;;;;;;19.31;49.38;98439.53;4453632;32;20131;-67
2023/06/13 09:41:10;;;;;;;3.70;1.85;;;;;;;19.36;48.94;98434.44;4452712;32;20096;-66
2023/06/13 09:43:38;;;;;;;3.78;1.37;;;;;;;19.26;48.92;98436.69;4448634;32;20153;-67
2023/06/13 09:46:09;;;;;;;5.85;1.35;;;;;;;19.31;49.54;98450.97;4457639;32;20542;-65
2023/06/13 09:48:37;;;;;;;2.42;1.60;;;;;;;19.45;48.02;98448.34;4458865;32;20135;-66
2023/06/13 09:51:09;;;;;;;3.03;1.40;;;;;;;19.43;48.63;98448.56;4459954;32;20145;-67
2023/06/13 09:53:37;;;;;;;3.67;1.70;;;;;;;19.33;47.97;98448.97;4458238;32;20154;-66
2023/06/13 09:56:12;;;;;;;2.53;1.60;;;;;;;19.42;50.84;98449.56;4456107;32;20145;-67
2023/06/13 09:58:40;;;;;;;2.80;1.48;;;;;;;19.72;49.37;98453.69;4458837;32;20112;-67
2023/06/13 10:01:15;;;;;;;2.80;1.60;;;;;;;19.72;45.81;98449.19;4464732;32;20113;-65
2023/06/13 10:03:44;;;;;;;4.10;1.42;;;;;;;19.74;48.33;98454.31;4467382;32;20089;-66
2023/06/13 10:06:11;;;;;;;2.58;1.30;;;;;;;19.76;47.71;98457.59;4465371;32;20093;-65
2023/06/13 10:08:39;;;;;;;3.58;1.67;;;;;;;19.77;49.08;98448.56;4465182;32;20120;-66
2023/06/13 10:11:09;;;;;;;3.95;1.50;;;;;;;19.95;46.89;98454.13;4448869;32;20217;-65
2023/06/13 10:14:06;;;;;;;2.75;1.33;;;;;;;20.14;47.22;98444.50;4470818;32;20092;-66
2023/06/13 10:16:39;;;;;;;2.50;1.60;;;;;;;20.20;47.67;98437.53;4408641;32;20086;-65
2023/06/13 10:19:19;;;;;;;1.87;1.33;;;;;;;20.29;45.20;98441.59;4402077;32;20193;-65
2023/06/13 10:21:47;;;;;;;2.22;1.27;;;;;;;20.35;45.34;98435.44;4390558;32;20127;-67
2023/06/13 10:24:19;;;;;;;2.20;1.62;;;;;;;19.92;46.02;98433.25;4402994;32;20144;-66
2023/06/13 10:26:54;;;;;;;4.85;1.60;;;;;;;19.96;45.09;98423.84;4391369;32;20102;-67
2023/06/13 10:29:49;;;;;;;2.83;1.70;;;;;;;20.07;43.34;98426.91;4398690;32;20118;-67
2023/06/13 10:32:41;;;;;;;4.45;1.50;;;;;;;20.21;43.15;98424.03;4394650;32;20142;-68
2023/06/13 10:35:36;;;;;;;2.35;1.85;;;;;;;20.48;44.54;98428.44;4399793;32;20467;-65
2023/06/13 10:38:33;;;;;;;2.22;1.20;;;;;;;20.49;43.90;98427.44;4396442;32;20511;-66
2023/06/13 10:41:29;;;;;;;6.80;1.83;;;;;;;20.67;43.08;98427.59;4402258;32;20114;-66
2023/06/13 10:44:07;;;;;;;3.47;1.48;;;;;;;20.62;42.87;98422.06;4401265;32;20107;-64
2023/06/13 10:46:34;;;;;;;1.80;1.40;;;;;;;20.58;42.65;98410.22;4404279;32;20086;-65
2023/06/13 10:49:02;;;;;;;4.03;1.10;;;;;;;20.56;44.64;98417.59;4405377;32;20120;-65
2023/06/13 10:51:30;;;;;;;3.05;1.67;;;;;;;20.90;44.84;98420.94;4399954;32;20114;-65
2023/06/13 10:54:07;;;;;;;5.40;1.50;;;;;;;21.09;44.28;98416.56;4446337;32;20176;-65
2023/06/13 10:56:39;;;;;;;2.97;1.55;;;;;;;21.15;46.01;98409.53;4463725;32;20114;-66
2023/06/13 10:59:08;;;;;;;2.90;1.40;;;;;;;21.20;42.18;98412.38;4463412;32;20080;-65
2023/06/13 11:01:37;;;;;;;2.22;1.50;;;;;;;20.99;41.09;98408.22;4464938;32;20094;-65
2023/06/13 11:04:11;;;;;;;4.43;1.45;;;;;;;21.03;40.70;98407.56;4468295;32;20162;-64
2023/06/13 11:06:41;;;;;;;3.33;1.83;;;;;;;21.12;40.41;98405.47;4466351;32;20093;-66
2023/06/13 11:09:23;;;;;;;6.97;1.45;;;;;;;21.03;41.43;98415.56;4467347;32;20108;-66
2023/06/13 11:11:53;;;;;;;1.90;1.40;;;;;;;20.99;39.55;98411.69;4467507;32;20498;-65
2023/06/13 11:14:25;;;;;;;3.80;1.50;;;;;;;20.73;41.90;98402.78;4464592;32;20108;-65
2023/06/13 11:16:54;;;;;;;2.22;1.50;;;;;;;21.27;43.84;98405.16;4463053;32;20092;-65
2023/06/13 11:19:23;;;;;;;2.95;1.50;;;;;;;21.64;39.15;98404.53;4448278;32;20111;-63
2023/06/13 11:22:00;;;;;;;6.28;1.87;;;;;;;21.22;39.59;98402.31;4464603;32;20149;-65
2023/06/13 11:24:30;;;;;;;4.68;1.55;;;;;;;21.01;41.30;98401.63;4469009;32;20152;-64
2023/06/13 11:26:59;;;;;;;3.87;1.70;;;;;;;20.74;40.96;98400.94;4466729;32;20155;-65
2023/06/13 11:29:33;;;;;;;2.92;1.35;;;;;;;20.56;42.25;98398.97;4463702;32;20092;-63
2023/06/13 11:32:03;;;;;;;2.28;1.55;;;;;;;20.31;41.85;98404.97;4463954;32;20114;-64
2023/06/13 11:34:39;;;;;;;2.80;1.73;;;;;;;20.69;41.25;98400.78;4466474;32;20528;-64
2023/06/13 11:37:22;;;;;;;3.72;1.45;;;;;;;21.01;39.60;98398.16;4461822;32;20109;-65
2023/06/13 11:39:54;;;;;;;2.00;1.70;;;;;;;21.17;39.74;98383.53;4463004;32;20106;-65
2023/06/13 11:42:41;;;;;;;7.18;1.73;;;;;;;21.33;42.37;98387.50;4463555;32;20153;-64
2023/06/13 11:45:09;;;;;;;3.62;1.80;;;;;;;20.67;41.62;98390.34;4463162;32;20422;-65